Terminal Aerodrome Forecast
Issued by NWS Albany, NY

Home | Current Version | Previous Version | Text Only | Print | Product List | Glossary On
Versions: 1 2 3 4 5 6 7 8 9 10 11 12 13 14 15 16 17 18 19 20
980
FTUS41 KALY 301738
TAFGFL
TAF
KGFL 301738Z 3018/3118 VRB03KT P6SM FEW250
     FM310000 VRB03KT P6SM SCT100 BKN250
     FM310700 00000KT P6SM VCSH OVC050
     FM311100 03002KT 4SM -RA BR OVC015
     FM311400 04002KT 2SM -RA BR SCT007 OVC015=

USA.gov is the U.S. government's official web portal to all federal, state and local government web resources and services.